Kenvil, New Jersey
Current Conditions -  °F | °C
As of 12:45 PM on Saturday 25 Oct 2014 (Local Time) from KMMU Reporting Station
Clear Clear  
Wind Chill: 66°   Ceiling: Unl
Heat Index: 66°   Visibility: 20mi
Dew Point: 41°   Wind: 5mph
Humidity: 40%   Direction: 340°NNW
Pressure: 29.78"   Gusts: 17mph
Location:  40.88°N, 74.62°W
Report Text: KMMU 251645Z 34004G15KT 20SM SKC 19/05 A2978
Loading
Personal Weather Stations






























Interactive Weather Map
Tropical Storm Tracking
New forecast layout! Learn more

10-Day Weather Forecast

Advertisements
Track Severe Weather on mobile